sensor_id;sensor_type;location;lat;lon;timestamp;P1;durP1;ratioP1;P2;durP2;ratioP2
70303;SDS011;57712;48.752;11.348;2023-05-07T00:01:29;5.97;;;2.33;;
70303;SDS011;57712;48.752;11.348;2023-05-07T00:03:55;6.05;;;2.75;;
70303;SDS011;57712;48.752;11.348;2023-05-07T00:06:22;7.75;;;3.33;;
70303;SDS011;57712;48.752;11.348;2023-05-07T00:08:49;7.95;;;4.15;;
70303;SDS011;57712;48.752;11.348;2023-05-07T00:11:16;9.93;;;3.97;;
70303;SDS011;57712;48.752;11.348;2023-05-07T00:13:42;6.03;;;3.03;;
70303;SDS011;57712;48.752;11.348;2023-05-07T00:16:09;7.75;;;2.90;;
70303;SDS011;57712;48.752;11.348;2023-05-07T00:18:36;5.95;;;3.00;;
70303;SDS011;57712;48.752;11.348;2023-05-07T00:21:03;6.22;;;2.75;;
70303;SDS011;57712;48.752;11.348;2023-05-07T00:23:29;6.05;;;3.50;;
70303;SDS011;57712;48.752;11.348;2023-05-07T00:25:56;6.47;;;2.60;;
70303;SDS011;57712;48.752;11.348;2023-05-07T00:28:23;6.32;;;2.83;;
70303;SDS011;57712;48.752;11.348;2023-05-07T00:30:49;6.97;;;3.33;;
70303;SDS011;57712;48.752;11.348;2023-05-07T00:33:16;6.43;;;2.63;;
70303;SDS011;57712;48.752;11.348;2023-05-07T00:35:43;6.80;;;3.30;;
70303;SDS011;57712;48.752;11.348;2023-05-07T00:38:10;6.07;;;3.03;;
70303;SDS011;57712;48.752;11.348;2023-05-07T00:40:37;5.93;;;2.78;;
70303;SDS011;57712;48.752;11.348;2023-05-07T00:43:05;6.72;;;3.17;;
70303;SDS011;57712;48.752;11.348;2023-05-07T00:45:33;9.63;;;2.85;;
70303;SDS011;57712;48.752;11.348;2023-05-07T00:48:00;6.05;;;2.88;;
70303;SDS011;57712;48.752;11.348;2023-05-07T00:50:28;5.50;;;2.70;;
70303;SDS011;57712;48.752;11.348;2023-05-07T00:52:56;4.93;;;2.30;;
70303;SDS011;57712;48.752;11.348;2023-05-07T00:55:23;5.35;;;2.92;;
70303;SDS011;57712;48.752;11.348;2023-05-07T00:57:51;5.65;;;2.60;;
70303;SDS011;57712;48.752;11.348;2023-05-07T01:00:17;5.65;;;2.78;;
70303;SDS011;57712;48.752;11.348;2023-05-07T01:02:45;4.90;;;3.03;;
70303;SDS011;57712;48.752;11.348;2023-05-07T01:05:14;6.57;;;2.65;;
70303;SDS011;57712;48.752;11.348;2023-05-07T01:07:44;6.15;;;2.65;;
70303;SDS011;57712;48.752;11.348;2023-05-07T01:10:11;7.30;;;2.95;;
70303;SDS011;57712;48.752;11.348;2023-05-07T01:12:39;5.65;;;3.08;;
70303;SDS011;57712;48.752;11.348;2023-05-07T01:15:07;7.77;;;3.17;;
70303;SDS011;57712;48.752;11.348;2023-05-07T01:17:35;6.13;;;3.20;;
70303;SDS011;57712;48.752;11.348;2023-05-07T01:20:03;7.40;;;3.85;;
70303;SDS011;57712;48.752;11.348;2023-05-07T01:22:32;7.32;;;3.13;;
70303;SDS011;57712;48.752;11.348;2023-05-07T01:25:00;6.70;;;2.72;;
70303;SDS011;57712;48.752;11.348;2023-05-07T01:27:27;5.13;;;3.40;;
70303;SDS011;57712;48.752;11.348;2023-05-07T01:29:54;8.52;;;2.53;;
70303;SDS011;57712;48.752;11.348;2023-05-07T01:32:24;7.13;;;2.90;;
70303;SDS011;57712;48.752;11.348;2023-05-07T01:34:59;6.18;;;3.10;;
70303;SDS011;57712;48.752;11.348;2023-05-07T01:37:29;5.70;;;2.90;;
70303;SDS011;57712;48.752;11.348;2023-05-07T01:39:56;6.83;;;3.07;;
70303;SDS011;57712;48.752;11.348;2023-05-07T01:42:23;5.38;;;3.00;;
70303;SDS011;57712;48.752;11.348;2023-05-07T01:44:50;6.70;;;3.22;;
70303;SDS011;57712;48.752;11.348;2023-05-07T01:47:17;5.78;;;3.08;;
70303;SDS011;57712;48.752;11.348;2023-05-07T01:49:44;6.47;;;3.05;;
70303;SDS011;57712;48.752;11.348;2023-05-07T01:52:11;7.27;;;3.40;;
70303;SDS011;57712;48.752;11.348;2023-05-07T01:54:39;6.75;;;3.83;;
70303;SDS011;57712;48.752;11.348;2023-05-07T01:57:06;6.72;;;3.60;;
70303;SDS011;57712;48.752;11.348;2023-05-07T01:59:32;6.05;;;2.80;;
70303;SDS011;57712;48.752;11.348;2023-05-07T02:01:59;9.43;;;3.45;;
70303;SDS011;57712;48.752;11.348;2023-05-07T02:04:27;7.63;;;3.33;;
70303;SDS011;57712;48.752;11.348;2023-05-07T02:06:53;7.10;;;3.03;;
70303;SDS011;57712;48.752;11.348;2023-05-07T02:09:20;8.48;;;3.80;;
70303;SDS011;57712;48.752;11.348;2023-05-07T02:11:46;7.07;;;3.30;;
70303;SDS011;57712;48.752;11.348;2023-05-07T02:14:13;7.25;;;2.97;;
70303;SDS011;57712;48.752;11.348;2023-05-07T02:16:40;7.23;;;3.30;;
70303;SDS011;57712;48.752;11.348;2023-05-07T02:19:06;6.50;;;2.83;;
70303;SDS011;57712;48.752;11.348;2023-05-07T02:21:33;6.03;;;2.80;;
70303;SDS011;57712;48.752;11.348;2023-05-07T02:24:00;8.35;;;2.80;;
70303;SDS011;57712;48.752;11.348;2023-05-07T02:26:26;4.55;;;2.35;;
70303;SDS011;57712;48.752;11.348;2023-05-07T02:28:53;7.93;;;2.80;;
70303;SDS011;57712;48.752;11.348;2023-05-07T02:31:20;5.57;;;2.85;;
70303;SDS011;57712;48.752;11.348;2023-05-07T02:33:46;10.93;;;2.50;;
70303;SDS011;57712;48.752;11.348;2023-05-07T02:36:13;5.57;;;2.95;;
70303;SDS011;57712;48.752;11.348;2023-05-07T02:38:40;5.68;;;2.60;;
70303;SDS011;57712;48.752;11.348;2023-05-07T02:41:06;6.03;;;2.73;;
70303;SDS011;57712;48.752;11.348;2023-05-07T02:43:33;5.68;;;2.35;;
70303;SDS011;57712;48.752;11.348;2023-05-07T02:46:09;4.85;;;2.85;;
70303;SDS011;57712;48.752;11.348;2023-05-07T02:48:36;6.05;;;3.33;;
70303;SDS011;57712;48.752;11.348;2023-05-07T02:51:03;5.53;;;2.40;;
70303;SDS011;57712;48.752;11.348;2023-05-07T02:53:30;6.30;;;2.67;;
70303;SDS011;57712;48.752;11.348;2023-05-07T02:55:57;6.25;;;2.50;;
70303;SDS011;57712;48.752;11.348;2023-05-07T02:58:26;6.45;;;3.00;;
70303;SDS011;57712;48.752;11.348;2023-05-07T03:00:53;6.97;;;2.80;;
70303;SDS011;57712;48.752;11.348;2023-05-07T03:03:23;5.30;;;2.67;;
70303;SDS011;57712;48.752;11.348;2023-05-07T03:05:50;5.83;;;2.60;;
70303;SDS011;57712;48.752;11.348;2023-05-07T03:08:16;6.82;;;2.42;;
70303;SDS011;57712;48.752;11.348;2023-05-07T03:10:43;6.07;;;2.90;;
70303;SDS011;57712;48.752;11.348;2023-05-07T03:13:10;6.15;;;2.65;;
70303;SDS011;57712;48.752;11.348;2023-05-07T03:15:37;5.75;;;2.92;;
70303;SDS011;57712;48.752;11.348;2023-05-07T03:18:03;4.40;;;2.17;;
70303;SDS011;57712;48.752;11.348;2023-05-07T03:20:30;5.70;;;2.50;;
70303;SDS011;57712;48.752;11.348;2023-05-07T03:22:57;5.57;;;2.53;;
70303;SDS011;57712;48.752;11.348;2023-05-07T03:25:23;6.00;;;2.70;;
70303;SDS011;57712;48.752;11.348;2023-05-07T03:27:50;6.20;;;2.58;;
70303;SDS011;57712;48.752;11.348;2023-05-07T03:30:17;5.83;;;2.40;;
70303;SDS011;57712;48.752;11.348;2023-05-07T03:32:45;4.88;;;2.53;;
70303;SDS011;57712;48.752;11.348;2023-05-07T03:35:13;5.25;;;2.60;;
70303;SDS011;57712;48.752;11.348;2023-05-07T03:37:40;6.53;;;2.75;;
70303;SDS011;57712;48.752;11.348;2023-05-07T03:40:07;4.68;;;2.00;;
70303;SDS011;57712;48.752;11.348;2023-05-07T03:42:35;5.83;;;2.57;;
70303;SDS011;57712;48.752;11.348;2023-05-07T03:45:02;6.47;;;2.90;;
70303;SDS011;57712;48.752;11.348;2023-05-07T03:47:29;6.45;;;2.90;;
70303;SDS011;57712;48.752;11.348;2023-05-07T03:49:56;6.85;;;2.83;;
70303;SDS011;57712;48.752;11.348;2023-05-07T03:52:22;8.68;;;2.60;;
70303;SDS011;57712;48.752;11.348;2023-05-07T03:54:52;6.43;;;3.00;;
70303;SDS011;57712;48.752;11.348;2023-05-07T03:57:20;5.53;;;3.10;;
70303;SDS011;57712;48.752;11.348;2023-05-07T03:59:46;7.18;;;2.92;;
70303;SDS011;57712;48.752;11.348;2023-05-07T04:02:14;7.03;;;2.85;;
70303;SDS011;57712;48.752;11.348;2023-05-07T04:04:41;5.90;;;2.90;;
70303;SDS011;57712;48.752;11.348;2023-05-07T04:07:07;5.77;;;2.97;;
70303;SDS011;57712;48.752;11.348;2023-05-07T04:09:34;7.95;;;3.33;;
70303;SDS011;57712;48.752;11.348;2023-05-07T04:12:01;6.15;;;2.83;;
70303;SDS011;57712;48.752;11.348;2023-05-07T04:14:27;5.85;;;3.17;;
70303;SDS011;57712;48.752;11.348;2023-05-07T04:16:55;6.15;;;3.45;;
70303;SDS011;57712;48.752;11.348;2023-05-07T04:19:21;6.67;;;3.00;;
70303;SDS011;57712;48.752;11.348;2023-05-07T04:21:48;5.85;;;3.47;;
70303;SDS011;57712;48.752;11.348;2023-05-07T04:24:15;6.80;;;3.53;;
70303;SDS011;57712;48.752;11.348;2023-05-07T04:26:43;7.28;;;3.33;;
70303;SDS011;57712;48.752;11.348;2023-05-07T04:29:10;6.47;;;3.63;;
70303;SDS011;57712;48.752;11.348;2023-05-07T04:31:38;6.13;;;3.10;;
70303;SDS011;57712;48.752;11.348;2023-05-07T04:34:04;7.63;;;3.10;;
70303;SDS011;57712;48.752;11.348;2023-05-07T04:36:31;6.88;;;3.45;;
70303;SDS011;57712;48.752;11.348;2023-05-07T04:38:59;6.82;;;3.33;;
70303;SDS011;57712;48.752;11.348;2023-05-07T04:41:26;5.80;;;3.13;;
70303;SDS011;57712;48.752;11.348;2023-05-07T04:43:54;6.63;;;3.40;;
70303;SDS011;57712;48.752;11.348;2023-05-07T04:46:20;6.47;;;3.15;;
70303;SDS011;57712;48.752;11.348;2023-05-07T04:48:47;6.32;;;3.30;;
70303;SDS011;57712;48.752;11.348;2023-05-07T04:51:14;6.13;;;3.22;;
70303;SDS011;57712;48.752;11.348;2023-05-07T04:53:40;6.10;;;3.30;;
70303;SDS011;57712;48.752;11.348;2023-05-07T04:56:08;7.77;;;3.00;;
70303;SDS011;57712;48.752;11.348;2023-05-07T04:58:34;6.10;;;3.08;;
70303;SDS011;57712;48.752;11.348;2023-05-07T05:01:01;6.63;;;2.92;;
70303;SDS011;57712;48.752;11.348;2023-05-07T05:03:28;5.35;;;3.13;;
70303;SDS011;57712;48.752;11.348;2023-05-07T05:05:56;5.80;;;3.00;;
70303;SDS011;57712;48.752;11.348;2023-05-07T05:08:25;6.07;;;2.60;;
70303;SDS011;57712;48.752;11.348;2023-05-07T05:10:52;6.75;;;3.42;;
70303;SDS011;57712;48.752;11.348;2023-05-07T05:13:18;6.50;;;3.60;;
70303;SDS011;57712;48.752;11.348;2023-05-07T05:15:45;6.80;;;3.55;;
70303;SDS011;57712;48.752;11.348;2023-05-07T05:18:12;8.40;;;3.50;;
70303;SDS011;57712;48.752;11.348;2023-05-07T05:20:39;8.47;;;4.20;;
70303;SDS011;57712;48.752;11.348;2023-05-07T05:23:05;8.93;;;4.40;;
70303;SDS011;57712;48.752;11.348;2023-05-07T05:25:33;9.15;;;5.85;;
70303;SDS011;57712;48.752;11.348;2023-05-07T05:28:00;12.40;;;6.55;;
70303;SDS011;57712;48.752;11.348;2023-05-07T05:30:27;11.05;;;6.22;;
70303;SDS011;57712;48.752;11.348;2023-05-07T05:32:54;9.67;;;5.67;;
70303;SDS011;57712;48.752;11.348;2023-05-07T05:35:21;11.60;;;5.40;;
70303;SDS011;57712;48.752;11.348;2023-05-07T05:37:48;9.02;;;5.60;;
70303;SDS011;57712;48.752;11.348;2023-05-07T05:40:14;7.40;;;4.47;;
70303;SDS011;57712;48.752;11.348;2023-05-07T05:42:41;7.75;;;5.05;;
70303;SDS011;57712;48.752;11.348;2023-05-07T05:45:08;8.23;;;4.63;;
70303;SDS011;57712;48.752;11.348;2023-05-07T05:47:35;7.30;;;4.30;;
70303;SDS011;57712;48.752;11.348;2023-05-07T05:50:04;7.65;;;5.35;;
70303;SDS011;57712;48.752;11.348;2023-05-07T05:52:32;7.80;;;5.10;;
70303;SDS011;57712;48.752;11.348;2023-05-07T05:54:59;8.40;;;5.38;;
70303;SDS011;57712;48.752;11.348;2023-05-07T05:57:25;7.20;;;4.87;;
70303;SDS011;57712;48.752;11.348;2023-05-07T05:59:54;8.07;;;4.82;;
70303;SDS011;57712;48.752;11.348;2023-05-07T06:02:21;8.15;;;5.50;;
70303;SDS011;57712;48.752;11.348;2023-05-07T06:04:48;8.05;;;5.85;;
70303;SDS011;57712;48.752;11.348;2023-05-07T06:07:14;8.35;;;5.10;;
70303;SDS011;57712;48.752;11.348;2023-05-07T06:09:41;10.03;;;6.47;;
70303;SDS011;57712;48.752;11.348;2023-05-07T06:12:08;10.85;;;6.00;;
70303;SDS011;57712;48.752;11.348;2023-05-07T06:14:34;10.05;;;6.82;;
70303;SDS011;57712;48.752;11.348;2023-05-07T06:17:01;8.82;;;6.47;;
70303;SDS011;57712;48.752;11.348;2023-05-07T06:19:28;9.20;;;6.53;;
70303;SDS011;57712;48.752;11.348;2023-05-07T06:21:54;10.43;;;6.90;;
70303;SDS011;57712;48.752;11.348;2023-05-07T06:24:22;9.18;;;6.65;;
70303;SDS011;57712;48.752;11.348;2023-05-07T06:26:50;8.90;;;6.28;;
70303;SDS011;57712;48.752;11.348;2023-05-07T06:29:16;9.70;;;6.30;;
70303;SDS011;57712;48.752;11.348;2023-05-07T06:31:43;9.45;;;6.45;;
70303;SDS011;57712;48.752;11.348;2023-05-07T06:34:10;9.13;;;5.80;;
70303;SDS011;57712;48.752;11.348;2023-05-07T06:36:40;8.30;;;5.50;;
70303;SDS011;57712;48.752;11.348;2023-05-07T06:39:07;10.23;;;6.28;;
70303;SDS011;57712;48.752;11.348;2023-05-07T06:41:34;9.43;;;6.00;;
70303;SDS011;57712;48.752;11.348;2023-05-07T06:44:05;9.20;;;5.88;;
70303;SDS011;57712;48.752;11.348;2023-05-07T06:46:31;9.53;;;5.27;;
70303;SDS011;57712;48.752;11.348;2023-05-07T06:48:58;8.48;;;5.53;;
70303;SDS011;57712;48.752;11.348;2023-05-07T06:51:24;9.57;;;5.57;;
70303;SDS011;57712;48.752;11.348;2023-05-07T06:53:51;8.45;;;5.55;;
70303;SDS011;57712;48.752;11.348;2023-05-07T06:56:18;7.88;;;5.90;;
70303;SDS011;57712;48.752;11.348;2023-05-07T06:58:45;8.70;;;5.53;;
70303;SDS011;57712;48.752;11.348;2023-05-07T07:01:11;7.55;;;5.03;;
70303;SDS011;57712;48.752;11.348;2023-05-07T07:03:38;8.82;;;6.55;;
70303;SDS011;57712;48.752;11.348;2023-05-07T07:06:05;9.02;;;6.65;;
70303;SDS011;57712;48.752;11.348;2023-05-07T07:08:32;8.90;;;6.35;;
70303;SDS011;57712;48.752;11.348;2023-05-07T07:10:58;9.60;;;6.60;;
70303;SDS011;57712;48.752;11.348;2023-05-07T07:13:25;9.27;;;6.57;;
70303;SDS011;57712;48.752;11.348;2023-05-07T07:15:52;8.30;;;6.18;;
70303;SDS011;57712;48.752;11.348;2023-05-07T07:18:19;8.32;;;6.45;;
70303;SDS011;57712;48.752;11.348;2023-05-07T07:20:46;9.13;;;6.15;;
70303;SDS011;57712;48.752;11.348;2023-05-07T07:23:13;8.27;;;5.90;;
70303;SDS011;57712;48.752;11.348;2023-05-07T07:25:40;9.05;;;6.40;;
70303;SDS011;57712;48.752;11.348;2023-05-07T07:28:07;8.55;;;6.25;;
70303;SDS011;57712;48.752;11.348;2023-05-07T07:30:34;8.43;;;5.97;;
70303;SDS011;57712;48.752;11.348;2023-05-07T07:33:01;10.77;;;6.20;;
70303;SDS011;57712;48.752;11.348;2023-05-07T07:35:29;8.37;;;5.90;;
70303;SDS011;57712;48.752;11.348;2023-05-07T07:37:56;8.25;;;5.60;;
70303;SDS011;57712;48.752;11.348;2023-05-07T07:40:23;8.77;;;5.85;;
70303;SDS011;57712;48.752;11.348;2023-05-07T07:42:51;8.40;;;5.63;;
70303;SDS011;57712;48.752;11.348;2023-05-07T07:45:18;7.78;;;5.32;;
70303;SDS011;57712;48.752;11.348;2023-05-07T07:47:45;7.50;;;5.83;;
70303;SDS011;57712;48.752;11.348;2023-05-07T07:50:12;9.15;;;5.45;;
70303;SDS011;57712;48.752;11.348;2023-05-07T07:52:57;8.70;;;6.10;;
70303;SDS011;57712;48.752;11.348;2023-05-07T07:55:23;8.27;;;5.68;;
70303;SDS011;57712;48.752;11.348;2023-05-07T07:57:50;9.38;;;5.80;;
70303;SDS011;57712;48.752;11.348;2023-05-07T08:00:17;10.33;;;5.93;;
70303;SDS011;57712;48.752;11.348;2023-05-07T08:02:44;10.50;;;5.55;;
70303;SDS011;57712;48.752;11.348;2023-05-07T08:05:10;8.18;;;6.10;;
70303;SDS011;57712;48.752;11.348;2023-05-07T08:07:37;8.57;;;5.40;;
70303;SDS011;57712;48.752;11.348;2023-05-07T08:10:04;7.88;;;5.72;;
70303;SDS011;57712;48.752;11.348;2023-05-07T08:12:30;8.40;;;5.70;;
70303;SDS011;57712;48.752;11.348;2023-05-07T08:14:57;8.02;;;5.28;;
70303;SDS011;57712;48.752;11.348;2023-05-07T08:17:24;8.25;;;6.47;;
70303;SDS011;57712;48.752;11.348;2023-05-07T08:19:51;9.43;;;6.35;;
70303;SDS011;57712;48.752;11.348;2023-05-07T08:22:18;8.65;;;6.00;;
70303;SDS011;57712;48.752;11.348;2023-05-07T08:24:44;8.13;;;5.43;;
70303;SDS011;57712;48.752;11.348;2023-05-07T08:27:11;9.52;;;6.30;;
70303;SDS011;57712;48.752;11.348;2023-05-07T08:29:38;9.73;;;6.20;;
70303;SDS011;57712;48.752;11.348;2023-05-07T08:32:04;7.38;;;5.25;;
70303;SDS011;57712;48.752;11.348;2023-05-07T08:34:31;10.50;;;6.18;;
70303;SDS011;57712;48.752;11.348;2023-05-07T08:36:58;8.50;;;5.30;;
70303;SDS011;57712;48.752;11.348;2023-05-07T08:39:24;7.97;;;5.60;;
70303;SDS011;57712;48.752;11.348;2023-05-07T08:41:51;7.85;;;5.82;;
70303;SDS011;57712;48.752;11.348;2023-05-07T08:44:23;7.85;;;6.22;;
70303;SDS011;57712;48.752;11.348;2023-05-07T08:46:54;8.02;;;5.97;;
70303;SDS011;57712;48.752;11.348;2023-05-07T08:49:23;9.30;;;6.90;;
70303;SDS011;57712;48.752;11.348;2023-05-07T08:51:49;8.32;;;5.63;;
70303;SDS011;57712;48.752;11.348;2023-05-07T08:54:17;8.75;;;6.50;;
70303;SDS011;57712;48.752;11.348;2023-05-07T08:56:45;7.88;;;5.88;;
70303;SDS011;57712;48.752;11.348;2023-05-07T08:59:12;7.63;;;5.32;;
70303;SDS011;57712;48.752;11.348;2023-05-07T09:01:39;7.90;;;5.40;;
70303;SDS011;57712;48.752;11.348;2023-05-07T09:04:06;7.43;;;5.22;;
70303;SDS011;57712;48.752;11.348;2023-05-07T09:06:33;8.80;;;6.50;;
70303;SDS011;57712;48.752;11.348;2023-05-07T09:09:00;7.75;;;5.70;;
70303;SDS011;57712;48.752;11.348;2023-05-07T09:11:27;8.35;;;5.63;;
70303;SDS011;57712;48.752;11.348;2023-05-07T09:13:55;7.33;;;4.87;;
70303;SDS011;57712;48.752;11.348;2023-05-07T09:16:24;8.38;;;6.22;;
70303;SDS011;57712;48.752;11.348;2023-05-07T09:18:52;7.32;;;5.50;;
70303;SDS011;57712;48.752;11.348;2023-05-07T09:21:20;8.32;;;5.43;;
70303;SDS011;57712;48.752;11.348;2023-05-07T09:23:52;9.40;;;7.25;;
70303;SDS011;57712;48.752;11.348;2023-05-07T09:26:23;10.13;;;5.60;;
70303;SDS011;57712;48.752;11.348;2023-05-07T09:28:51;7.13;;;5.43;;
70303;SDS011;57712;48.752;11.348;2023-05-07T09:31:18;8.13;;;5.70;;
70303;SDS011;57712;48.752;11.348;2023-05-07T09:33:46;7.63;;;5.40;;
70303;SDS011;57712;48.752;11.348;2023-05-07T09:36:13;7.05;;;4.72;;
70303;SDS011;57712;48.752;11.348;2023-05-07T09:38:40;6.63;;;4.50;;
70303;SDS011;57712;48.752;11.348;2023-05-07T09:41:08;6.43;;;4.95;;
70303;SDS011;57712;48.752;11.348;2023-05-07T09:43:37;7.60;;;4.97;;
70303;SDS011;57712;48.752;11.348;2023-05-07T09:48:42;7.03;;;5.38;;
70303;SDS011;57712;48.752;11.348;2023-05-07T09:51:24;7.90;;;4.77;;
70303;SDS011;57712;48.752;11.348;2023-05-07T09:53:57;6.50;;;4.53;;
70303;SDS011;57712;48.752;11.348;2023-05-07T09:56:28;8.18;;;4.97;;
70303;SDS011;57712;48.752;11.348;2023-05-07T09:58:57;7.03;;;4.68;;
70303;SDS011;57712;48.752;11.348;2023-05-07T10:01:26;7.00;;;4.47;;
70303;SDS011;57712;48.752;11.348;2023-05-07T10:03:53;6.77;;;3.93;;
70303;SDS011;57712;48.752;11.348;2023-05-07T10:06:23;6.63;;;4.05;;
70303;SDS011;57712;48.752;11.348;2023-05-07T10:08:52;6.47;;;3.88;;
70303;SDS011;57712;48.752;11.348;2023-05-07T10:11:19;6.55;;;4.13;;
70303;SDS011;57712;48.752;11.348;2023-05-07T10:13:46;5.88;;;3.92;;
70303;SDS011;57712;48.752;11.348;2023-05-07T10:16:14;6.07;;;4.23;;
70303;SDS011;57712;48.752;11.348;2023-05-07T10:18:41;7.20;;;4.30;;
70303;SDS011;57712;48.752;11.348;2023-05-07T10:21:27;6.35;;;4.22;;
70303;SDS011;57712;48.752;11.348;2023-05-07T10:23:59;5.68;;;3.50;;
70303;SDS011;57712;48.752;11.348;2023-05-07T10:26:33;7.47;;;4.05;;
70303;SDS011;57712;48.752;11.348;2023-05-07T10:29:03;7.13;;;3.93;;
70303;SDS011;57712;48.752;11.348;2023-05-07T10:31:47;7.38;;;4.50;;
70303;SDS011;57712;48.752;11.348;2023-05-07T10:34:21;6.10;;;4.50;;
70303;SDS011;57712;48.752;11.348;2023-05-07T10:36:52;5.07;;;3.72;;
70303;SDS011;57712;48.752;11.348;2023-05-07T10:39:21;6.10;;;3.65;;
70303;SDS011;57712;48.752;11.348;2023-05-07T10:41:48;6.23;;;3.30;;
70303;SDS011;57712;48.752;11.348;2023-05-07T10:44:27;8.18;;;2.90;;
70303;SDS011;57712;48.752;11.348;2023-05-07T10:47:08;4.90;;;2.85;;
70303;SDS011;57712;48.752;11.348;2023-05-07T10:49:36;5.25;;;3.08;;
70303;SDS011;57712;48.752;11.348;2023-05-07T10:52:24;6.22;;;3.65;;
70303;SDS011;57712;48.752;11.348;2023-05-07T10:57:40;6.18;;;4.18;;
70303;SDS011;57712;48.752;11.348;2023-05-07T11:03:05;5.38;;;3.42;;
70303;SDS011;57712;48.752;11.348;2023-05-07T11:05:33;5.53;;;3.42;;
70303;SDS011;57712;48.752;11.348;2023-05-07T11:08:04;6.23;;;3.17;;
70303;SDS011;57712;48.752;11.348;2023-05-07T11:16:20;6.30;;;4.05;;
70303;SDS011;57712;48.752;11.348;2023-05-07T11:18:50;6.97;;;3.95;;
70303;SDS011;57712;48.752;11.348;2023-05-07T11:24:03;5.75;;;3.92;;
70303;SDS011;57712;48.752;11.348;2023-05-07T11:26:47;5.47;;;3.80;;
70303;SDS011;57712;48.752;11.348;2023-05-07T11:29:16;6.53;;;3.83;;
70303;SDS011;57712;48.752;11.348;2023-05-07T11:31:48;5.88;;;3.72;;
70303;SDS011;57712;48.752;11.348;2023-05-07T11:34:23;6.07;;;4.03;;
70303;SDS011;57712;48.752;11.348;2023-05-07T11:36:51;9.18;;;7.70;;
70303;SDS011;57712;48.752;11.348;2023-05-07T11:39:26;6.45;;;3.95;;
70303;SDS011;57712;48.752;11.348;2023-05-07T11:41:52;5.43;;;3.60;;
70303;SDS011;57712;48.752;11.348;2023-05-07T11:44:19;5.28;;;3.33;;
70303;SDS011;57712;48.752;11.348;2023-05-07T11:46:46;4.97;;;3.17;;
70303;SDS011;57712;48.752;11.348;2023-05-07T11:49:13;5.00;;;3.20;;
70303;SDS011;57712;48.752;11.348;2023-05-07T11:51:39;5.43;;;3.85;;
70303;SDS011;57712;48.752;11.348;2023-05-07T11:54:08;5.60;;;3.42;;
70303;SDS011;57712;48.752;11.348;2023-05-07T11:56:37;5.78;;;3.60;;
70303;SDS011;57712;48.752;11.348;2023-05-07T11:59:05;6.10;;;3.10;;
70303;SDS011;57712;48.752;11.348;2023-05-07T12:01:34;5.30;;;3.60;;
70303;SDS011;57712;48.752;11.348;2023-05-07T12:04:02;5.60;;;3.40;;
70303;SDS011;57712;48.752;11.348;2023-05-07T12:06:30;5.82;;;3.22;;
70303;SDS011;57712;48.752;11.348;2023-05-07T12:08:57;4.88;;;3.45;;
70303;SDS011;57712;48.752;11.348;2023-05-07T12:11:24;4.73;;;3.17;;
70303;SDS011;57712;48.752;11.348;2023-05-07T12:13:53;5.55;;;2.70;;
70303;SDS011;57712;48.752;11.348;2023-05-07T12:16:24;6.20;;;2.40;;
70303;SDS011;57712;48.752;11.348;2023-05-07T12:18:51;6.28;;;2.47;;
70303;SDS011;57712;48.752;11.348;2023-05-07T12:21:21;5.10;;;3.10;;
70303;SDS011;57712;48.752;11.348;2023-05-07T12:23:49;6.60;;;4.87;;
70303;SDS011;57712;48.752;11.348;2023-05-07T12:26:16;5.88;;;3.00;;
70303;SDS011;57712;48.752;11.348;2023-05-07T12:28:43;4.72;;;2.80;;
70303;SDS011;57712;48.752;11.348;2023-05-07T12:31:10;5.55;;;2.78;;
70303;SDS011;57712;48.752;11.348;2023-05-07T12:33:36;6.68;;;3.08;;
70303;SDS011;57712;48.752;11.348;2023-05-07T12:36:05;5.20;;;2.30;;
70303;SDS011;57712;48.752;11.348;2023-05-07T12:38:37;5.63;;;2.67;;
70303;SDS011;57712;48.752;11.348;2023-05-07T12:41:05;5.07;;;2.58;;
70303;SDS011;57712;48.752;11.348;2023-05-07T12:43:33;4.82;;;2.50;;
70303;SDS011;57712;48.752;11.348;2023-05-07T12:46:01;4.22;;;2.70;;
70303;SDS011;57712;48.752;11.348;2023-05-07T12:48:35;5.00;;;2.63;;
70303;SDS011;57712;48.752;11.348;2023-05-07T12:51:04;4.50;;;2.88;;
70303;SDS011;57712;48.752;11.348;2023-05-07T12:53:32;5.43;;;2.70;;
70303;SDS011;57712;48.752;11.348;2023-05-07T12:55:59;5.20;;;2.60;;
70303;SDS011;57712;48.752;11.348;2023-05-07T12:58:27;4.82;;;2.42;;
70303;SDS011;57712;48.752;11.348;2023-05-07T13:00:56;5.17;;;2.47;;
70303;SDS011;57712;48.752;11.348;2023-05-07T13:03:27;4.50;;;2.20;;
70303;SDS011;57712;48.752;11.348;2023-05-07T13:05:57;5.45;;;2.42;;
70303;SDS011;57712;48.752;11.348;2023-05-07T13:08:26;5.15;;;2.65;;
70303;SDS011;57712;48.752;11.348;2023-05-07T13:10:54;5.22;;;3.25;;
70303;SDS011;57712;48.752;11.348;2023-05-07T13:13:21;5.53;;;2.27;;
70303;SDS011;57712;48.752;11.348;2023-05-07T13:15:48;4.85;;;3.00;;
70303;SDS011;57712;48.752;11.348;2023-05-07T13:18:14;4.63;;;2.85;;
70303;SDS011;57712;48.752;11.348;2023-05-07T13:20:41;5.07;;;2.45;;
70303;SDS011;57712;48.752;11.348;2023-05-07T13:23:09;4.40;;;2.55;;
70303;SDS011;57712;48.752;11.348;2023-05-07T13:25:36;4.80;;;2.47;;
70303;SDS011;57712;48.752;11.348;2023-05-07T13:28:04;6.00;;;2.92;;
70303;SDS011;57712;48.752;11.348;2023-05-07T13:30:36;5.05;;;2.00;;
70303;SDS011;57712;48.752;11.348;2023-05-07T13:33:02;4.80;;;2.80;;
70303;SDS011;57712;48.752;11.348;2023-05-07T13:35:30;4.82;;;2.40;;
70303;SDS011;57712;48.752;11.348;2023-05-07T13:37:57;5.93;;;2.50;;
70303;SDS011;57712;48.752;11.348;2023-05-07T13:40:23;4.70;;;2.45;;
70303;SDS011;57712;48.752;11.348;2023-05-07T13:42:50;7.57;;;2.78;;
70303;SDS011;57712;48.752;11.348;2023-05-07T13:45:17;4.18;;;2.35;;
70303;SDS011;57712;48.752;11.348;2023-05-07T13:47:45;4.72;;;2.55;;
70303;SDS011;57712;48.752;11.348;2023-05-07T13:50:12;4.40;;;2.63;;
70303;SDS011;57712;48.752;11.348;2023-05-07T13:52:40;4.82;;;2.92;;
70303;SDS011;57712;48.752;11.348;2023-05-07T13:55:12;4.75;;;2.75;;
70303;SDS011;57712;48.752;11.348;2023-05-07T13:57:39;5.93;;;2.00;;
70303;SDS011;57712;48.752;11.348;2023-05-07T14:00:06;4.40;;;2.67;;
70303;SDS011;57712;48.752;11.348;2023-05-07T14:02:33;9.40;;;2.97;;
70303;SDS011;57712;48.752;11.348;2023-05-07T14:05:00;4.60;;;2.05;;
70303;SDS011;57712;48.752;11.348;2023-05-07T14:07:27;4.57;;;2.15;;
70303;SDS011;57712;48.752;11.348;2023-05-07T14:09:54;4.55;;;2.40;;
70303;SDS011;57712;48.752;11.348;2023-05-07T14:12:21;4.57;;;2.38;;
70303;SDS011;57712;48.752;11.348;2023-05-07T14:14:48;4.33;;;2.23;;
70303;SDS011;57712;48.752;11.348;2023-05-07T14:17:16;4.95;;;1.95;;
70303;SDS011;57712;48.752;11.348;2023-05-07T14:19:44;4.60;;;2.50;;
70303;SDS011;57712;48.752;11.348;2023-05-07T14:22:12;4.93;;;2.03;;
70303;SDS011;57712;48.752;11.348;2023-05-07T14:24:39;4.93;;;2.10;;
70303;SDS011;57712;48.752;11.348;2023-05-07T14:27:06;4.87;;;2.60;;
70303;SDS011;57712;48.752;11.348;2023-05-07T14:29:33;5.00;;;2.03;;
70303;SDS011;57712;48.752;11.348;2023-05-07T14:32:02;4.30;;;2.90;;
70303;SDS011;57712;48.752;11.348;2023-05-07T14:34:29;4.15;;;2.35;;
70303;SDS011;57712;48.752;11.348;2023-05-07T14:36:56;5.03;;;3.10;;
70303;SDS011;57712;48.752;11.348;2023-05-07T14:39:23;4.60;;;2.10;;
70303;SDS011;57712;48.752;11.348;2023-05-07T14:41:49;4.97;;;2.40;;
70303;SDS011;57712;48.752;11.348;2023-05-07T14:44:16;5.97;;;2.58;;
70303;SDS011;57712;48.752;11.348;2023-05-07T14:46:42;5.22;;;2.30;;
70303;SDS011;57712;48.752;11.348;2023-05-07T14:49:10;4.40;;;2.60;;
70303;SDS011;57712;48.752;11.348;2023-05-07T14:51:44;5.10;;;2.47;;
70303;SDS011;57712;48.752;11.348;2023-05-07T14:54:12;4.82;;;2.55;;